Time;durP1;ratioP1;P1;durP2;ratioP2;P2;SDS_P1;SDS_P2;PMS_P1;PMS_P2;Temp;Humidity;BMP_temperature;BMP_pressure;BME280_temperature;BME280_humidity;BME280_pressure;Samples;Min_cycle;Max_cycle;Signal;HPM_P1;HPM_P2
2022/10/08 00:01:09;;;;;;;18.10;5.07;;;;;;;12.18;71.08;99976.09;5020078;28;20056;-84
2022/10/08 00:03:36;;;;;;;7.50;3.25;;;;;;;12.06;71.67;99979.03;5023920;28;20159;-84
2022/10/08 00:06:12;;;;;;;9.60;3.70;;;;;;;12.21;70.79;99971.97;5020562;28;20029;-84
2022/10/08 00:08:40;;;;;;;9.05;2.30;;;;;;;12.09;71.62;99966.75;5021560;28;20029;-83
2022/10/08 00:11:12;;;;;;;7.30;2.58;;;;;;;12.10;71.67;99961.00;5019312;28;20036;-84
2022/10/08 00:13:41;;;;;;;17.67;4.57;;;;;;;12.06;71.67;99967.28;5021909;28;20094;-84
2022/10/08 00:16:12;;;;;;;7.47;2.40;;;;;;;12.13;71.18;99965.13;5019962;28;20125;-84
2022/10/08 00:18:39;;;;;;;16.27;3.05;;;;;;;12.19;71.11;99964.06;5022560;28;20098;-83
2022/10/08 00:21:08;;;;;;;12.45;2.70;;;;;;;12.04;71.44;99964.81;5018805;28;20064;-85
2022/10/08 00:23:33;;;;;;;7.45;2.45;;;;;;;11.97;72.43;99967.81;5030094;28;20036;-83
2022/10/08 00:26:06;;;;;;;9.10;3.05;;;;;;;12.12;71.54;99968.97;5030927;28;20033;-83
2022/10/08 00:28:35;;;;;;;12.75;3.22;;;;;;;12.22;71.12;99955.34;5030317;28;20036;-83
2022/10/08 00:31:10;;;;;;;8.38;3.53;;;;;;;12.06;71.90;99967.28;5030553;28;20037;-83
2022/10/08 00:33:35;;;;;;;6.05;2.42;;;;;;;11.91;72.33;99960.69;5042297;28;20120;-83
2022/10/08 00:36:02;;;;;;;7.85;2.35;;;;;;;12.07;71.64;99955.25;5049092;28;20115;-83
2022/10/08 00:38:27;;;;;;;14.27;3.45;;;;;;;12.10;71.38;99955.53;5041885;28;20038;-83
2022/10/08 00:40:53;;;;;;;14.23;3.08;;;;;;;12.18;71.27;99956.97;5030228;28;20410;-83
2022/10/08 00:43:46;;;;;;;10.77;2.83;;;;;;;12.15;71.68;99954.75;5029875;28;20056;-84
2022/10/08 00:46:38;;;;;;;9.80;2.58;;;;;;;11.93;72.36;99958.50;5029984;28;20274;-83
2022/10/08 00:49:17;;;;;;;7.97;2.80;;;;;;;11.90;72.06;99948.94;5028837;28;20059;-84
2022/10/08 00:51:48;;;;;;;13.60;2.80;;;;;;;12.20;71.26;99945.75;5030511;28;20064;-83
2022/10/08 00:54:15;;;;;;;7.43;2.15;;;;;;;12.18;71.09;99953.41;5029564;28;20480;-85
2022/10/08 00:56:41;;;;;;;18.92;3.58;;;;;;;12.03;71.68;99942.16;5030326;28;20021;-83
2022/10/08 00:59:09;;;;;;;9.15;3.47;;;;;;;12.12;71.40;99949.84;5030045;28;20029;-84
2022/10/08 01:01:34;;;;;;;9.90;3.33;;;;;;;11.91;72.58;99950.59;5030962;28;20029;-84
2022/10/08 01:04:04;;;;;;;9.23;1.90;;;;;;;11.93;72.70;99955.78;5029594;28;20041;-84
2022/10/08 01:06:42;;;;;;;9.68;4.85;;;;;;;11.77;73.03;99955.75;5031200;28;20031;-84
2022/10/08 01:09:14;;;;;;;9.60;2.88;;;;;;;11.97;71.91;99954.16;5029598;28;20064;-85
2022/10/08 01:11:48;;;;;;;5.53;3.38;;;;;;;12.00;72.65;99953.59;5030125;28;20462;-84
2022/10/08 01:14:19;;;;;;;12.30;3.58;;;;;;;12.05;72.17;99955.53;5029069;28;20033;-84
2022/10/08 01:17:02;;;;;;;9.93;3.03;;;;;;;12.10;72.01;99954.72;5030244;28;20033;-85
2022/10/08 01:19:27;;;;;;;10.80;2.30;;;;;;;11.89;72.33;99954.69;5029686;28;20027;-85
2022/10/08 01:22:09;;;;;;;8.70;2.87;;;;;;;11.92;71.96;99951.38;5029801;28;20124;-84
2022/10/08 01:27:53;;;;;;;17.85;4.93;;;;;;;11.89;72.21;99947.31;4987426;28;20455;-84
2022/10/08 01:30:19;;;;;;;10.20;2.17;;;;;;;11.85;72.54;99945.38;5005858;28;20271;-84
2022/10/08 01:32:56;;;;;;;5.07;2.03;;;;;;;11.69;73.28;99942.59;5016508;28;20029;-84
2022/10/08 01:35:28;;;;;;;6.38;2.13;;;;;;;11.87;72.62;99944.03;5029536;28;20040;-84
2022/10/08 01:37:57;;;;;;;4.43;2.30;;;;;;;11.93;72.36;99947.59;5029537;28;20564;-84
2022/10/08 01:40:28;;;;;;;7.57;2.67;;;;;;;11.91;72.38;99949.75;5028776;28;20119;-85
2022/10/08 01:42:55;;;;;;;8.55;2.47;;;;;;;12.07;72.01;99938.84;5029892;28;20056;-85
2022/10/08 01:45:36;;;;;;;7.75;2.40;;;;;;;11.99;72.94;99940.22;5029857;28;20025;-85
2022/10/08 01:48:07;;;;;;;10.95;2.22;;;;;;;12.01;72.49;99944.31;5029414;28;20067;-84
2022/10/08 01:50:39;;;;;;;18.73;4.13;;;;;;;11.99;72.56;99945.69;5029921;28;20037;-84
2022/10/08 01:53:10;;;;;;;8.93;3.10;;;;;;;11.96;73.05;99935.31;5029243;28;20043;-83
2022/10/08 01:55:39;;;;;;;4.70;1.50;;;;;;;11.84;73.59;99939.09;5029595;28;20038;-84
2022/10/08 01:58:14;;;;;;;8.40;2.65;;;;;;;11.94;73.52;99938.28;5029863;28;20034;-84
2022/10/08 02:00:41;;;;;;;7.88;2.17;;;;;;;12.10;73.02;99935.59;5029114;28;20030;-84
2022/10/08 02:03:10;;;;;;;13.38;2.00;;;;;;;11.95;73.31;99934.47;5028391;28;20091;-84
2022/10/08 02:05:39;;;;;;;10.77;3.65;;;;;;;11.97;73.34;99942.41;5031162;28;20185;-84
2022/10/08 02:08:05;;;;;;;10.48;2.83;;;;;;;11.93;72.91;99939.38;5033807;28;20067;-84
2022/10/08 02:10:31;;;;;;;7.97;1.88;;;;;;;12.11;72.78;99932.63;5033170;28;20025;-84
2022/10/08 02:12:56;;;;;;;11.02;2.58;;;;;;;12.04;73.04;99934.75;5033038;28;20145;-84
2022/10/08 02:15:37;;;;;;;6.00;2.47;;;;;;;12.10;72.80;99941.06;5031983;28;20060;-84
2022/10/08 02:18:13;;;;;;;10.55;2.80;;;;;;;12.19;72.44;99942.19;5033323;28;20033;-85
2022/10/08 02:21:03;;;;;;;7.60;2.97;;;;;;;12.10;72.98;99935.59;5033795;28;20029;-85
2022/10/08 02:23:36;;;;;;;7.57;2.53;;;;;;;12.10;73.27;99935.59;5032596;28;20034;-84
2022/10/08 02:26:08;;;;;;;;;;;;;;;11.94;73.82;99937.47;5033517;28;20394;-84
2022/10/08 02:29:23;;;;;;;10.05;2.75;;;;;;;11.89;74.08;99938.28;5032822;28;19909;-85
2022/10/08 02:31:53;;;;;;;7.30;2.67;;;;;;;12.01;73.63;99930.66;5028363;28;20060;-84
2022/10/08 02:34:31;;;;;;;11.32;1.88;;;;;;;12.05;73.90;99927.38;5032933;28;20037;-84
2022/10/08 02:37:02;;;;;;;12.48;2.70;;;;;;;12.01;74.12;99924.38;5033020;28;20353;-84
2022/10/08 02:39:32;;;;;;;5.75;1.65;;;;;;;12.03;73.78;99925.75;5032701;28;20120;-85
2022/10/08 02:42:03;;;;;;;24.17;3.28;;;;;;;12.10;74.45;99932.88;5032527;28;20038;-85
2022/10/08 02:44:34;;;;;;;8.48;1.92;;;;;;;12.10;74.56;99930.13;5033396;28;20033;-85
2022/10/08 02:47:03;;;;;;;11.38;2.20;;;;;;;11.97;75.05;99920.53;5032363;28;20550;-84
2022/10/08 02:49:32;;;;;;;9.10;1.90;;;;;;;12.05;74.70;99916.44;5032555;28;20048;-84
2022/10/08 02:52:01;;;;;;;17.30;4.30;;;;;;;11.99;75.37;99907.44;5032487;28;20088;-85
2022/10/08 02:54:33;;;;;;;8.15;2.00;;;;;;;11.99;75.37;99916.44;5033052;28;20033;-84
2022/10/08 02:57:12;;;;;;;11.50;2.35;;;;;;;12.14;74.92;99915.66;5032967;28;20025;-84
2022/10/08 02:59:38;;;;;;;10.35;2.80;;;;;;;12.12;74.98;99917.84;5033007;28;20040;-84
2022/10/08 03:02:04;;;;;;;10.60;2.45;;;;;;;12.13;74.74;99924.97;5032610;28;20033;-84
2022/10/08 03:04:36;;;;;;;8.68;2.10;;;;;;;12.16;75.28;99918.16;5032338;28;20104;-85
2022/10/08 03:07:01;;;;;;;9.32;2.38;;;;;;;12.16;75.72;99923.63;5032577;28;20454;-84
2022/10/08 03:09:32;;;;;;;12.77;3.75;;;;;;;12.12;75.40;99917.06;5032430;28;20106;-84
2022/10/08 03:11:59;;;;;;;6.82;2.97;;;;;;;12.18;75.36;99915.16;5032611;28;20029;-84
2022/10/08 03:14:25;;;;;;;14.00;2.72;;;;;;;12.20;75.61;99904.75;5032503;28;20110;-84
2022/10/08 03:16:52;;;;;;;13.50;2.30;;;;;;;12.17;76.08;99908.84;5032230;28;20429;-83
2022/10/08 03:19:18;;;;;;;7.47;1.65;;;;;;;12.31;75.39;99913.78;5032220;28;20056;-84
2022/10/08 03:21:46;;;;;;;6.72;2.28;;;;;;;12.36;75.20;99922.00;5032128;28;20118;-84
2022/10/08 03:24:13;;;;;;;11.52;2.60;;;;;;;12.26;75.93;99923.59;5031358;28;20021;-84
2022/10/08 03:26:39;;;;;;;7.85;2.00;;;;;;;12.46;75.47;99932.94;5032023;28;20049;-84
2022/10/08 03:29:04;;;;;;;12.98;2.35;;;;;;;12.42;75.61;99936.47;5032000;28;20033;-84
2022/10/08 03:31:30;;;;;;;9.73;2.42;;;;;;;12.44;75.64;99935.13;5031737;28;20467;-84
2022/10/08 03:33:56;;;;;;;11.13;2.42;;;;;;;12.36;76.23;99946.59;5031208;28;20049;-84
2022/10/08 03:36:22;;;;;;;26.70;3.92;;;;;;;12.31;78.41;99952.88;5031943;28;20390;-85
2022/10/08 03:38:49;;;;;;;8.90;1.75;;;;;;;12.19;80.61;99952.28;5031580;28;20037;-85
2022/10/08 03:41:15;;;;;;;10.68;3.00;;;;;;;12.15;81.53;99949.28;5032048;28;20291;-85
2022/10/08 03:43:40;;;;;;;7.85;2.47;;;;;;;12.14;82.28;99950.41;5031036;28;20068;-84
2022/10/08 03:46:06;;;;;;;11.90;4.18;;;;;;;12.13;82.76;99956.94;5031064;28;20112;-85
2022/10/08 03:48:32;;;;;;;12.82;2.80;;;;;;;12.02;83.32;99956.88;5031679;28;20120;-84
2022/10/08 03:51:00;;;;;;;17.45;4.15;;;;;;;11.91;84.21;99955.22;5031845;28;20112;-85
2022/10/08 03:53:26;;;;;;;10.52;2.42;;;;;;;11.95;84.80;99955.50;5044013;28;20032;-85
2022/10/08 03:55:52;;;;;;;9.27;3.83;;;;;;;12.00;85.11;99967.25;5050426;28;20027;-85
2022/10/08 03:58:18;;;;;;;7.93;2.45;;;;;;;11.93;85.18;99974.91;5051466;28;20068;-85
2022/10/08 04:00:43;;;;;;;14.20;3.53;;;;;;;11.87;85.65;99974.06;5051203;28;20064;-85
2022/10/08 04:03:09;;;;;;;17.95;3.50;;;;;;;11.84;86.22;99973.78;5040291;28;20033;-85
2022/10/08 04:05:34;;;;;;;15.07;4.03;;;;;;;11.76;86.45;99975.94;5031661;28;20064;-85
2022/10/08 04:07:59;;;;;;;7.22;2.53;;;;;;;11.54;87.59;99990.59;5032054;28;20093;-84
2022/10/08 04:10:24;;;;;;;7.63;3.90;;;;;;;11.71;86.82;99983.28;5032392;28;20029;-85
2022/10/08 04:12:50;;;;;;;10.83;3.37;;;;;;;11.38;88.34;99992.44;5032564;28;20029;-84
2022/10/08 04:15:15;;;;;;;10.45;4.25;;;;;;;11.37;88.13;99985.31;5031596;28;20266;-84
2022/10/08 04:17:41;;;;;;;8.02;3.13;;;;;;;11.44;88.67;99982.34;5031284;28;20414;-85
2022/10/08 04:20:07;;;;;;;10.23;3.92;;;;;;;11.32;89.09;99994.31;5030965;28;20490;-85
2022/10/08 04:22:33;;;;;;;9.23;3.45;;;;;;;11.36;89.46;99996.50;5031349;28;20029;-84
2022/10/08 04:24:58;;;;;;;11.88;3.65;;;;;;;11.43;89.92;99978.00;5031175;28;20485;-84
2022/10/08 04:27:24;;;;;;;9.95;3.88;;;;;;;11.49;89.71;99996.03;5030591;28;20132;-85
2022/10/08 04:29:49;;;;;;;9.73;3.33;;;;;;;11.37;90.58;99998.16;5030795;28;20474;-85
2022/10/08 04:32:15;;;;;;;9.07;3.73;;;;;;;11.43;90.54;99986.97;5030405;28;20025;-85
2022/10/08 04:34:40;;;;;;;10.82;3.58;;;;;;;11.18;91.63;99987.69;5030987;28;20247;-85
2022/10/08 04:37:05;;;;;;;23.87;4.33;;;;;;;11.23;91.98;99976.78;5030935;28;20036;-85
2022/10/08 04:39:30;;;;;;;11.57;4.03;;;;;;;11.27;92.11;99975.16;5031275;28;20246;-85
2022/10/08 04:41:56;;;;;;;7.50;3.70;;;;;;;11.14;92.17;99975.63;5030960;28;20301;-85
2022/10/08 04:44:21;;;;;;;10.73;5.32;;;;;;;11.12;92.54;99989.56;5030444;28;20275;-85
2022/10/08 04:46:46;;;;;;;26.30;5.32;;;;;;;11.23;91.85;99989.63;5030690;28;20283;-84
2022/10/08 04:49:12;;;;;;;15.07;5.30;;;;;;;11.25;92.28;99999.16;5029981;28;20037;-85
2022/10/08 04:51:37;;;;;;;12.70;4.13;;;;;;;11.29;92.01;100000.28;5030475;28;20263;-85
2022/10/08 04:54:02;;;;;;;10.02;4.25;;;;;;;11.25;92.24;100004.63;5030336;28;20312;-85
2022/10/08 04:56:30;;;;;;;10.75;4.30;;;;;;;11.36;91.51;100002.78;5030632;28;20037;-86
2022/10/08 04:58:58;;;;;;;9.48;4.10;;;;;;;11.06;93.28;100007.81;5030352;28;20033;-86
2022/10/08 05:01:24;;;;;;;10.60;3.90;;;;;;;11.07;93.56;100014.06;5030246;28;20311;-84
2022/10/08 05:03:51;;;;;;;8.77;4.35;;;;;;;11.20;92.48;100012.78;5029628;28;20030;-84
2022/10/08 05:06:19;;;;;;;13.80;5.80;;;;;;;11.39;92.26;100012.38;5030388;28;20487;-85
2022/10/08 05:08:45;;;;;;;13.07;5.38;;;;;;;11.28;92.38;100022.41;5029976;28;20026;-85
2022/10/08 05:11:11;;;;;;;11.00;4.95;;;;;;;11.37;91.65;100022.72;5030276;28;20029;-84
2022/10/08 05:13:36;;;;;;;12.15;5.65;;;;;;;11.41;91.02;100024.66;5029993;28;20406;-84
2022/10/08 05:16:07;;;;;;;12.30;4.43;;;;;;;11.05;93.13;100027.97;5029601;28;20445;-84
2022/10/08 05:18:34;;;;;;;11.88;5.80;;;;;;;11.09;93.38;100028.25;5030571;28;20049;-85
2022/10/08 05:21:04;;;;;;;16.35;7.25;;;;;;;10.98;93.82;100030.09;5019401;28;20065;-84
2022/10/08 05:23:30;;;;;;;11.55;6.15;;;;;;;10.95;93.53;100028.72;5022940;28;20044;-85
2022/10/08 05:25:55;;;;;;;12.13;6.22;;;;;;;11.18;93.17;100025.88;5028404;28;20025;-84
2022/10/08 05:28:20;;;;;;;12.60;6.07;;;;;;;10.95;93.98;100036.06;5030071;28;20037;-84
2022/10/08 05:30:45;;;;;;;17.10;7.23;;;;;;;11.16;93.26;100028.03;5028073;28;20302;-84
2022/10/08 05:33:11;;;;;;;11.43;6.47;;;;;;;11.17;93.40;100041.41;5029420;28;20285;-85
2022/10/08 05:35:37;;;;;;;9.47;5.90;;;;;;;11.33;92.20;100030.59;5030069;28;20312;-84
2022/10/08 05:38:02;;;;;;;15.43;6.38;;;;;;;11.07;93.23;100036.72;5029790;28;20293;-84
2022/10/08 05:40:29;;;;;;;11.48;6.93;;;;;;;11.02;93.24;100031.22;5029453;28;20145;-85
2022/10/08 05:42:54;;;;;;;12.73;6.13;;;;;;;10.99;94.01;100029.00;5029366;28;20033;-85
2022/10/08 05:45:19;;;;;;;10.77;6.00;;;;;;;10.78;95.26;100031.56;5029787;28;20050;-85
2022/10/08 05:47:47;;;;;;;17.70;6.83;;;;;;;10.78;95.01;100034.28;5026286;28;20053;-85
2022/10/08 05:50:12;;;;;;;23.10;7.93;;;;;;;10.76;96.00;100039.19;5030158;28;20250;-86
2022/10/08 05:52:37;;;;;;;13.75;6.38;;;;;;;10.96;94.41;100041.25;5029334;28;20044;-84
2022/10/08 05:55:03;;;;;;;13.83;7.33;;;;;;;11.07;93.63;100046.81;5029607;28;20053;-88
2022/10/08 05:57:28;;;;;;;11.23;5.75;;;;;;;11.04;94.09;100041.88;5029949;28;20619;-85
2022/10/08 05:59:53;;;;;;;15.20;5.53;;;;;;;11.22;93.18;100057.03;5028819;28;20036;-83
2022/10/08 06:02:19;;;;;;;12.85;6.63;;;;;;;11.09;93.47;100058.28;5028926;28;20406;-83
2022/10/08 06:04:44;;;;;;;11.95;6.28;;;;;;;11.17;93.22;100062.44;5028570;28;20033;-83
2022/10/08 06:07:09;;;;;;;22.03;7.60;;;;;;;11.04;93.89;100053.63;5023034;28;20022;-82
2022/10/08 06:09:35;;;;;;;9.53;5.03;;;;;;;11.25;93.19;100064.66;5018883;28;20317;-84
2022/10/08 06:12:00;;;;;;;13.63;6.40;;;;;;;11.24;93.17;100079.41;5023114;28;20275;-85
2022/10/08 06:14:25;;;;;;;13.48;5.88;;;;;;;11.15;93.71;100086.41;5019951;28;20282;-83
2022/10/08 06:16:51;;;;;;;18.65;6.35;;;;;;;10.97;94.83;100077.56;5025763;28;20029;-83
2022/10/08 06:19:16;;;;;;;13.43;6.18;;;;;;;11.22;93.24;100087.03;5029064;28;20107;-82
2022/10/08 06:21:41;;;;;;;12.07;5.53;;;;;;;11.27;93.34;100083.53;5021490;28;20041;-86
2022/10/08 06:24:09;;;;;;;12.30;7.15;;;;;;;11.33;92.53;100090.66;5025304;28;20653;-84
2022/10/08 06:26:40;;;;;;;17.35;6.55;;;;;;;11.24;92.80;100097.69;5029335;28;20037;-84
2022/10/08 06:29:09;;;;;;;10.85;5.18;;;;;;;11.44;92.41;100095.13;5011323;28;20403;-84
2022/10/08 06:31:35;;;;;;;12.85;5.50;;;;;;;11.37;92.97;100101.91;5010246;28;20026;-84
2022/10/08 06:34:04;;;;;;;13.75;5.78;;;;;;;11.38;92.88;100106.25;5025290;28;20067;-84
2022/10/08 06:36:30;;;;;;;14.38;6.13;;;;;;;11.33;93.36;100093.38;5030479;28;20052;-83
2022/10/08 06:39:00;;;;;;;20.25;7.22;;;;;;;11.29;93.23;100108.63;5029744;28;20127;-85
2022/10/08 06:41:34;;;;;;;12.48;5.75;;;;;;;11.31;93.73;100115.50;5029922;28;20061;-84
2022/10/08 06:44:00;;;;;;;;;;;;;;;11.32;93.55;100125.34;5028533;28;20041;-84
2022/10/08 06:46:25;;;;;;;15.68;6.85;;;;;;;11.40;93.42;100125.94;5029542;28;19928;-83
2022/10/08 06:48:51;;;;;;;9.65;5.40;;;;;;;11.48;92.72;100132.81;5029602;28;20068;-83
2022/10/08 06:51:17;;;;;;;12.60;6.63;;;;;;;11.31;93.52;100133.75;5030686;28;20421;-84
2022/10/08 06:53:46;;;;;;;14.50;8.27;;;;;;;11.44;93.27;100137.97;5032190;28;20308;-83
2022/10/08 06:56:14;;;;;;;14.27;7.15;;;;;;;11.50;92.84;100141.56;5033275;28;20029;-84
2022/10/08 06:58:40;;;;;;;15.80;8.00;;;;;;;11.52;93.56;100153.88;5031553;28;20478;-83
2022/10/08 07:01:08;;;;;;;17.08;7.32;;;;;;;11.55;93.12;100147.88;5032664;28;20112;-83
2022/10/08 07:03:35;;;;;;;14.60;7.00;;;;;;;11.50;93.46;100147.84;5031263;28;20041;-89
2022/10/08 07:06:02;;;;;;;23.02;7.95;;;;;;;11.75;93.04;100154.59;5032994;28;20034;-88
2022/10/08 07:08:28;;;;;;;14.10;5.45;;;;;;;11.94;91.77;100153.31;5033358;28;20136;-83
2022/10/08 07:10:53;;;;;;;11.45;5.30;;;;;;;11.95;91.10;100163.97;5032884;28;20025;-86
2022/10/08 07:13:19;;;;;;;11.98;6.35;;;;;;;11.84;91.11;100168.56;5028939;28;20041;-90
2022/10/08 07:15:44;;;;;;;19.50;6.40;;;;;;;11.83;91.36;100182.47;5031888;28;20041;-85
2022/10/08 07:18:11;;;;;;;13.93;6.10;;;;;;;12.08;90.22;100173.59;5025444;28;20103;-83
2022/10/08 07:20:37;;;;;;;12.93;6.85;;;;;;;11.85;91.23;100185.78;5033364;28;20271;-84
2022/10/08 07:23:02;;;;;;;11.32;6.25;;;;;;;11.82;92.19;100186.31;5029054;28;20037;-83
2022/10/08 07:25:27;;;;;;;12.30;6.90;;;;;;;11.86;92.44;100195.59;5031334;28;20037;-84
2022/10/08 07:27:53;;;;;;;12.03;6.13;;;;;;;11.98;91.76;100196.22;5031272;28;20338;-84
2022/10/08 07:30:18;;;;;;;16.52;6.82;;;;;;;11.95;92.23;100195.94;5031574;28;20257;-84
2022/10/08 07:32:43;;;;;;;15.37;7.80;;;;;;;12.00;91.14;100199.53;5027216;28;20033;-83
2022/10/08 07:35:08;;;;;;;14.90;7.93;;;;;;;11.80;92.88;100194.75;5026277;28;20256;-83
2022/10/08 07:37:34;;;;;;;16.33;7.85;;;;;;;11.89;92.72;100209.59;5011207;28;20780;-84
2022/10/08 07:39:59;;;;;;;23.40;8.35;;;;;;;12.01;92.53;100209.38;5011622;28;20121;-83
2022/10/08 07:42:24;;;;;;;16.93;8.60;;;;;;;12.03;92.06;100209.13;5015847;28;20116;-83
2022/10/08 07:44:49;;;;;;;19.57;10.17;;;;;;;11.89;92.74;100201.38;5031051;28;20782;-83
2022/10/08 07:47:15;;;;;;;25.70;9.53;;;;;;;12.00;92.25;100215.91;5030906;28;20275;-84
2022/10/08 07:49:40;;;;;;;14.50;9.03;;;;;;;11.91;92.50;100209.31;5031138;28;20433;-84
2022/10/08 07:52:06;;;;;;;17.97;9.17;;;;;;;11.99;92.63;100214.28;5030476;28;20251;-84
2022/10/08 07:54:32;;;;;;;16.08;8.63;;;;;;;12.11;92.08;100208.66;5028920;28;20279;-84
2022/10/08 07:57:00;;;;;;;20.02;9.85;;;;;;;12.01;92.00;100223.03;5031071;28;20049;-84
2022/10/08 07:59:26;;;;;;;22.58;11.35;;;;;;;12.24;91.47;100220.22;5030015;28;20025;-84
2022/10/08 08:01:51;;;;;;;17.83;10.52;;;;;;;12.26;91.73;100227.03;5030975;28;20063;-85
2022/10/08 08:04:16;;;;;;;18.08;10.23;;;;;;;12.28;91.30;100232.25;5014454;28;20104;-84
2022/10/08 08:06:46;;;;;;;30.83;11.85;;;;;;;12.41;90.66;100236.41;5010825;28;20053;-84
2022/10/08 08:09:13;;;;;;;19.95;11.07;;;;;;;12.35;90.60;100234.72;5013696;28;21027;-83
2022/10/08 08:11:39;;;;;;;18.65;11.18;;;;;;;12.33;90.63;100245.13;5017667;28;20137;-83
2022/10/08 08:14:04;;;;;;;23.65;11.50;;;;;;;12.46;90.44;100239.19;5021926;28;20157;-83
2022/10/08 08:16:30;;;;;;;18.23;10.57;;;;;;;12.34;90.88;100255.81;5020601;28;20112;-83
2022/10/08 08:18:58;;;;;;;17.88;10.95;;;;;;;12.38;90.67;100253.34;5022096;28;20033;-84
2022/10/08 08:21:27;;;;;;;26.23;12.48;;;;;;;12.62;90.59;100258.41;5021872;28;20029;-84
2022/10/08 08:23:54;;;;;;;18.15;10.40;;;;;;;12.49;91.05;100262.41;5024951;28;20363;-84
2022/10/08 08:26:25;;;;;;;17.83;9.63;;;;;;;12.65;90.34;100257.84;5019463;28;20125;-85
2022/10/08 08:28:56;;;;;;;22.88;10.75;;;;;;;12.59;90.25;100265.22;5020345;28;20025;-82
2022/10/08 08:31:24;;;;;;;27.10;11.75;;;;;;;12.57;89.87;100272.06;5017619;28;20088;-83
2022/10/08 08:33:52;;;;;;;17.45;9.80;;;;;;;12.47;90.40;100267.34;5020848;28;20025;-84
2022/10/08 08:36:19;;;;;;;18.73;10.35;;;;;;;12.56;89.68;100273.13;5015636;28;20041;-86
2022/10/08 08:38:45;;;;;;;18.20;10.10;;;;;;;12.53;89.74;100281.88;5019439;28;20129;-89
2022/10/08 08:41:35;;;;;;;18.30;10.73;;;;;;;12.73;89.92;100292.91;5019250;28;20079;-84
2022/10/08 08:44:07;;;;;;;20.45;9.95;;;;;;;12.79;88.82;100284.75;5018442;28;20034;-84
2022/10/08 08:46:39;;;;;;;16.02;10.05;;;;;;;12.71;88.92;100288.81;5026476;28;20565;-83
2022/10/08 08:49:20;;;;;;;20.85;9.25;;;;;;;12.66;88.41;100289.59;5026118;28;20307;-84
2022/10/08 08:51:45;;;;;;;20.27;10.00;;;;;;;12.49;89.29;100298.81;5030859;28;20075;-86
2022/10/08 08:54:11;;;;;;;16.67;7.55;;;;;;;12.61;88.93;100300.50;5029966;28;20033;-84
2022/10/08 08:56:36;;;;;;;23.98;10.35;;;;;;;12.57;88.33;100300.22;5012585;28;20042;-83
2022/10/08 08:59:39;;;;;;;17.48;8.90;;;;;;;12.56;88.22;100304.06;5010168;28;20034;-83
2022/10/08 09:02:17;;;;;;;17.33;7.65;;;;;;;12.75;87.40;100311.81;5006900;28;20042;-82
2022/10/08 09:04:47;;;;;;;34.67;10.20;;;;;;;12.64;87.79;100312.81;5029328;28;20033;-84
2022/10/08 09:07:18;;;;;;;15.13;7.40;;;;;;;12.76;87.82;100307.16;5030072;28;20116;-85
2022/10/08 09:09:47;;;;;;;17.33;9.38;;;;;;;12.60;87.63;100315.28;5030993;28;20041;-88
2022/10/08 09:12:15;;;;;;;16.73;8.85;;;;;;;12.63;88.13;100319.41;5029772;28;20186;-81
2022/10/08 09:14:44;;;;;;;25.83;10.32;;;;;;;12.56;88.37;100325.09;5029063;28;20548;-78
2022/10/08 09:17:18;;;;;;;15.38;9.07;;;;;;;12.48;88.73;100324.53;5029264;28;20458;-78
2022/10/08 09:19:45;;;;;;;21.48;10.38;;;;;;;12.87;87.84;100324.44;5029597;28;20022;-79
2022/10/08 09:22:19;;;;;;;33.08;10.27;;;;;;;13.08;86.53;100325.34;5029539;28;20038;-86
2022/10/08 09:24:49;;;;;;;19.92;8.30;;;;;;;13.29;86.17;100339.09;5028878;28;20052;-84
2022/10/08 09:27:15;;;;;;;14.45;8.82;;;;;;;13.22;85.41;100338.53;5014239;28;20033;-84
2022/10/08 09:29:40;;;;;;;19.25;9.27;;;;;;;13.12;85.35;100344.81;5012451;28;20109;-87
2022/10/08 09:32:13;;;;;;;20.38;8.75;;;;;;;13.26;85.12;100342.41;5012249;28;20109;-85
2022/10/08 09:34:38;;;;;;;21.00;9.43;;;;;;;13.14;84.69;100343.44;5029740;28;20029;-85
2022/10/08 09:37:04;;;;;;;14.82;8.90;;;;;;;13.18;84.10;100338.25;5031759;28;20338;-85
2022/10/08 09:39:32;;;;;;;30.20;9.23;;;;;;;13.23;85.73;100342.91;5023636;28;20044;-87
2022/10/08 09:42:06;;;;;;;12.75;7.40;;;;;;;13.30;83.86;100343.50;5025511;28;20495;-84
2022/10/08 09:44:46;;;;;;;15.32;8.10;;;;;;;13.33;83.82;100342.13;5030472;28;20083;-83
2022/10/08 09:47:18;;;;;;;14.45;7.80;;;;;;;13.48;82.80;100344.91;5029779;28;20099;-85
2022/10/08 09:49:48;;;;;;;14.15;6.70;;;;;;;13.64;83.13;100355.94;5029871;28;20040;-87
2022/10/08 09:52:25;;;;;;;21.85;8.35;;;;;;;13.60;82.10;100352.91;5027737;28;20037;-83
2022/10/08 09:55:15;;;;;;;13.45;5.82;;;;;;;13.65;81.03;100344.69;5026228;28;20268;-83
2022/10/08 09:57:48;;;;;;;13.80;7.90;;;;;;;13.74;80.52;100345.00;5029190;28;20426;-87
2022/10/08 10:00:36;;;;;;;12.40;6.25;;;;;;;14.04;79.98;100345.28;5010037;28;20026;-85
2022/10/08 10:03:13;;;;;;;15.68;5.70;;;;;;;13.92;78.63;100341.97;5018328;28;20037;-85
2022/10/08 10:05:39;;;;;;;10.77;4.57;;;;;;;14.17;77.31;100354.06;5029012;28;20026;-83
2022/10/08 10:08:04;;;;;;;12.10;5.30;;;;;;;13.95;77.47;100353.22;5029093;28;20044;-86
2022/10/08 10:10:37;;;;;;;10.43;5.20;;;;;;;14.14;77.86;100349.13;5029346;28;20240;-85
2022/10/08 10:13:12;;;;;;;12.73;4.82;;;;;;;14.24;75.77;100366.38;5029211;28;20250;-84
2022/10/08 10:15:45;;;;;;;9.00;4.63;;;;;;;14.15;76.12;100364.47;5029237;28;20116;-84
2022/10/08 10:18:15;;;;;;;11.23;5.40;;;;;;;14.31;75.41;100352.41;5029076;28;20029;-86
2022/10/08 10:20:46;;;;;;;12.18;4.45;;;;;;;14.52;73.30;100346.88;5020893;28;20049;-86
2022/10/08 10:23:20;;;;;;;15.07;3.28;;;;;;;14.76;71.60;100351.78;5028682;28;20038;-85
2022/10/08 10:25:49;;;;;;;11.43;3.92;;;;;;;14.71;68.90;100336.16;5024513;28;20055;-85
2022/10/08 10:28:33;;;;;;;8.07;2.92;;;;;;;14.46;69.31;100348.00;5023287;28;20044;-85
2022/10/08 10:31:22;;;;;;;7.53;3.42;;;;;;;14.28;68.07;100354.88;5025490;28;20108;-87
2022/10/08 10:34:01;;;;;;;13.18;3.97;;;;;;;14.58;69.39;100348.50;5032147;28;20045;-85
2022/10/08 10:36:31;;;;;;;12.65;4.05;;;;;;;14.68;67.79;100364.16;5027056;28;20036;-86
2022/10/08 10:39:14;;;;;;;6.45;3.65;;;;;;;14.63;68.25;100371.56;5023322;28;20025;-85
2022/10/08 10:41:48;;;;;;;6.63;2.53;;;;;;;14.42;67.57;100371.59;5021372;28;20072;-85
2022/10/08 10:44:21;;;;;;;10.52;2.60;;;;;;;14.41;67.52;100364.47;5023527;28;20474;-85
2022/10/08 10:46:50;;;;;;;27.60;3.93;;;;;;;14.24;66.38;100368.31;5020885;28;20050;-84
2022/10/08 10:49:37;;;;;;;12.23;3.35;;;;;;;14.29;65.77;100376.53;5021917;28;20064;-84
2022/10/08 10:52:32;;;;;;;5.30;2.83;;;;;;;14.51;66.07;100375.41;5024120;28;20114;-83
2022/10/08 10:55:07;;;;;;;14.25;3.75;;;;;;;14.40;65.69;100373.81;5023608;28;20041;-85
2022/10/08 10:57:55;;;;;;;9.82;3.67;;;;;;;14.43;65.58;100370.50;5021682;28;20113;-85
2022/10/08 11:00:40;;;;;;;9.43;3.60;;;;;;;14.52;64.84;100366.06;5022973;28;20032;-84
2022/10/08 11:03:36;;;;;;;7.88;3.17;;;;;;;14.86;65.17;100374.84;5024179;28;20699;-85
2022/10/08 11:06:43;;;;;;;9.05;3.20;;;;;;;14.97;64.19;100370.94;5022617;28;20417;-85
2022/10/08 11:09:24;;;;;;;4.30;2.40;;;;;;;14.90;65.06;100379.50;5025463;28;20038;-88
2022/10/08 11:11:56;;;;;;;7.18;3.25;;;;;;;14.55;63.81;100382.00;5030500;28;20033;-85
2022/10/08 11:14:49;;;;;;;6.15;2.63;;;;;;;14.38;64.36;100386.97;5014925;28;20026;-86
2022/10/08 11:17:51;;;;;;;5.18;2.25;;;;;;;14.36;64.47;100381.72;5038402;28;20026;-86
2022/10/08 11:20:23;;;;;;;8.40;2.53;;;;;;;14.30;64.19;100380.91;5024558;28;20079;-86
2022/10/08 11:23:10;;;;;;;7.05;2.83;;;;;;;14.64;64.12;100385.03;5022022;28;20034;-86
2022/10/08 11:25:41;;;;;;;6.53;2.78;;;;;;;15.12;63.00;100378.31;5022684;28;20036;-84
2022/10/08 11:28:34;;;;;;;5.25;2.38;;;;;;;15.46;61.65;100381.47;5021258;28;20034;-85
2022/10/08 11:31:12;;;;;;;10.82;2.92;;;;;;;15.63;60.79;100378.34;5022596;28;20025;-84
2022/10/08 11:33:38;;;;;;;6.15;3.13;;;;;;;15.66;60.24;100375.03;5022746;28;20033;-84
2022/10/08 11:36:17;;;;;;;12.05;2.55;;;;;;;15.32;59.41;100375.75;5020968;28;20044;-84
2022/10/08 11:38:49;;;;;;;9.95;2.20;;;;;;;14.98;58.12;100380.84;5022418;28;20026;-85